Carimona, Minnesota
Current Conditions -  °F | °C
As of 12:15 PM on Saturday 25 Oct 2014 (Local Time) from KFKA Reporting Station
Clear Clear  
Wind Chill: 59°   Ceiling: Unl
Heat Index: 59°   Visibility: 10mi
Dew Point: 34°   Wind: 17mph
Humidity: 39%   Direction: 310°NW
Pressure: 30.07"   Gusts: 22mph
Location:  43.6343°N, 92.1426°W
Report Text: KFKA 251715Z AUTO 31015G19KT 10SM CLR 15/01 A3007 RMK AO2 T01500011
Loading
Personal Weather Stations






























Interactive Weather Map
Tropical Storm Tracking
New forecast layout! Learn more

10-Day Weather Forecast

Advertisements
Track Severe Weather on mobile